createdAt,value
2022-09-12T00:01:21.321Z,99760.41
2022-09-12T00:03:52.445Z,99751.41
2022-09-12T00:06:23.373Z,99755.72
2022-09-12T00:08:51.682Z,99747.94
2022-09-12T00:11:19.859Z,99747.50
2022-09-12T00:13:48.022Z,99748.22
2022-09-12T00:16:19.033Z,99743.13
2022-09-12T00:18:47.903Z,99746.22
2022-09-12T00:21:16.947Z,99753.22
2022-09-12T00:23:45.440Z,99755.91
2022-09-12T00:26:14.365Z,99760.13
2022-09-12T00:28:43.498Z,99752.38
2022-09-12T00:31:14.907Z,99762.91
2022-09-12T00:33:44.983Z,99759.00
2022-09-12T00:36:15.465Z,99768.66
2022-09-12T00:38:44.468Z,99775.09
2022-09-12T00:41:17.471Z,99765.47
2022-09-12T00:43:47.930Z,99771.66
2022-09-12T00:46:27.008Z,99775.09
2022-09-12T00:49:01.214Z,99785.13
2022-09-12T00:51:31.736Z,99798.22
2022-09-12T00:54:02.080Z,99808.66
2022-09-12T00:56:30.874Z,99821.78
2022-09-12T00:59:03.722Z,99834.00
2022-09-12T01:01:32.894Z,99843.97
2022-09-12T01:04:03.222Z,99856.72
2022-09-12T01:06:37.081Z,99855.53
2022-09-12T01:09:05.837Z,99851.25
2022-09-12T01:11:37.208Z,99855.22
2022-09-12T01:14:05.301Z,99852.44
2022-09-12T01:16:36.161Z,99839.91
2022-09-12T01:19:21.502Z,99834.88
2022-09-12T01:22:07.273Z,99828.00
2022-09-12T01:24:55.677Z,99823.16
2022-09-12T01:27:43.465Z,99821.06
2022-09-12T01:30:41.192Z,99809.69
2022-09-12T01:33:41.290Z,99809.09
2022-09-12T01:36:35.909Z,99824.56
2022-09-12T01:39:07.545Z,99813.97
2022-09-12T01:41:50.031Z,99823.81
2022-09-12T01:44:27.439Z,99815.53
2022-09-12T01:46:59.423Z,99816.03
2022-09-12T01:49:34.624Z,99823.00
2022-09-12T01:52:11.010Z,99814.44
2022-09-12T01:54:44.635Z,99817.59
2022-09-12T01:57:20.019Z,99812.78
2022-09-12T01:59:51.965Z,99816.75
2022-09-12T02:02:26.614Z,99806.78
2022-09-12T02:05:00.503Z,99796.69
2022-09-12T02:07:35.858Z,99800.50
2022-09-12T02:10:09.763Z,99801.81
2022-09-12T02:12:43.550Z,99798.47
2022-09-12T02:15:14.267Z,99788.06
2022-09-12T02:17:45.717Z,99798.41
2022-09-12T02:20:37.420Z,99795.28
2022-09-12T02:23:13.157Z,99792.75
2022-09-12T02:25:45.737Z,99788.66
2022-09-12T02:28:16.752Z,99794.63
2022-09-12T02:30:51.933Z,99793.91
2022-09-12T02:33:28.457Z,99791.25
2022-09-12T02:36:03.383Z,99783.44
2022-09-12T02:38:37.322Z,99794.13
2022-09-12T02:41:05.687Z,99789.28
2022-09-12T02:43:33.992Z,99794.78
2022-09-12T02:46:02.211Z,99792.56
2022-09-12T02:48:35.172Z,99794.06
2022-09-12T02:51:05.164Z,99796.97
2022-09-12T02:53:33.855Z,99794.97
2022-09-12T02:56:02.254Z,99792.22
2022-09-12T02:58:33.684Z,99804.84
2022-09-12T03:01:09.573Z,99813.84
2022-09-12T03:03:55.414Z,99813.75
2022-09-12T03:06:39.088Z,99807.78
2022-09-12T03:09:13.947Z,99805.75
2022-09-12T03:12:01.992Z,99802.44
2022-09-12T03:15:02.427Z,99799.19
2022-09-12T03:17:42.533Z,99801.81
2022-09-12T03:20:12.938Z,99795.56
2022-09-12T03:22:51.491Z,99801.38
2022-09-12T03:25:23.597Z,99803.97
2022-09-12T03:27:57.854Z,99804.38
2022-09-12T03:30:26.588Z,99791.47
2022-09-12T03:32:56.158Z,99780.22
2022-09-12T03:35:26.215Z,99774.94
2022-09-12T03:37:55.701Z,99775.09
2022-09-12T03:40:23.875Z,99777.28
2022-09-12T03:42:52.011Z,99770.81
2022-09-12T03:45:20.178Z,99765.84
2022-09-12T03:47:49.241Z,99774.22
2022-09-12T03:50:17.417Z,99775.03
2022-09-12T03:52:45.767Z,99766.56
2022-09-12T03:55:15.503Z,99785.19
2022-09-12T03:57:43.679Z,99781.00
2022-09-12T04:00:16.415Z,99790.59
2022-09-12T04:02:47.250Z,99796.91
2022-09-12T04:05:15.647Z,99800.81
2022-09-12T04:07:43.846Z,99792.91
2022-09-12T04:10:12.056Z,99796.63
2022-09-12T04:12:41.577Z,99800.38
2022-09-12T04:15:11.275Z,99799.69
2022-09-12T04:17:39.387Z,99809.69
2022-09-12T04:20:09.983Z,99817.28
2022-09-12T04:22:38.052Z,99821.28
2022-09-12T04:25:07.142Z,99821.78
2022-09-12T04:27:35.434Z,99812.16
2022-09-12T04:30:05.782Z,99814.50
2022-09-12T04:32:33.856Z,99823.19
2022-09-12T04:35:02.268Z,99824.25
2022-09-12T04:37:30.401Z,99822.78
2022-09-12T04:39:59.305Z,99807.72
2022-09-12T04:42:27.420Z,99805.78
2022-09-12T04:44:55.605Z,99803.88
2022-09-12T04:47:25.115Z,99808.50
2022-09-12T04:49:53.281Z,99819.97
2022-09-12T04:52:21.442Z,99831.13
2022-09-12T04:54:49.547Z,99828.94
2022-09-12T04:57:17.817Z,99827.41
2022-09-12T04:59:45.983Z,99816.81
2022-09-12T05:02:14.164Z,99805.03
2022-09-12T05:04:43.651Z,99794.50
2022-09-12T05:07:11.812Z,99797.91
2022-09-12T05:09:39.932Z,99805.72
2022-09-12T05:12:09.523Z,99821.59
2022-09-12T05:14:37.679Z,99825.91
2022-09-12T05:17:06.590Z,99815.84
2022-09-12T05:19:34.903Z,99816.25
2022-09-12T05:22:05.131Z,99810.16
2022-09-12T05:24:33.319Z,99814.09
2022-09-12T05:27:03.461Z,99799.47
2022-09-12T05:29:31.625Z,99806.22
2022-09-12T05:31:59.787Z,99814.94
2022-09-12T05:34:28.751Z,99833.28
2022-09-12T05:36:56.912Z,99822.94
2022-09-12T05:39:26.417Z,99824.94
2022-09-12T05:41:54.537Z,99826.09
2022-09-12T05:44:22.643Z,99826.66
2022-09-12T05:46:51.455Z,99834.16
2022-09-12T05:49:19.543Z,99840.28
2022-09-12T05:51:47.776Z,99836.78
2022-09-12T05:54:18.882Z,99837.41
2022-09-12T05:56:49.213Z,99834.31
2022-09-12T05:59:19.590Z,99829.59
2022-09-12T06:01:47.986Z,99832.34
2022-09-12T06:04:16.822Z,99828.22
2022-09-12T06:06:46.428Z,99841.06
2022-09-12T06:09:15.674Z,99835.38
2022-09-12T06:11:44.954Z,99840.66
2022-09-12T06:14:16.613Z,99829.47
2022-09-12T06:16:45.060Z,99828.81
2022-09-12T06:19:17.150Z,99832.44
2022-09-12T06:21:46.156Z,99829.75
2022-09-12T06:24:14.446Z,99838.13
2022-09-12T06:26:43.823Z,99835.00
2022-09-12T06:29:14.470Z,99831.50
2022-09-12T06:31:44.157Z,99834.81
2022-09-12T06:34:14.144Z,99838.13
2022-09-12T06:36:43.999Z,99834.13
2022-09-12T06:39:13.696Z,99830.44
2022-09-12T06:41:44.305Z,99836.69
2022-09-12T06:44:16.970Z,99835.34
2022-09-12T06:46:45.437Z,99848.03
2022-09-12T06:49:13.812Z,99855.97
2022-09-12T06:51:43.320Z,99849.41
2022-09-12T06:54:14.409Z,99843.03
2022-09-12T06:56:42.905Z,99837.63
2022-09-12T06:59:11.202Z,99849.25
2022-09-12T07:01:41.872Z,99853.56
2022-09-12T07:04:10.555Z,99849.06
2022-09-12T07:06:40.727Z,99855.84
2022-09-12T07:09:11.528Z,99853.63
2022-09-12T07:11:42.161Z,99850.31
2022-09-12T07:14:14.123Z,99862.66
2022-09-12T07:16:44.134Z,99860.25
2022-09-12T07:19:12.741Z,99859.53
2022-09-12T07:21:41.745Z,99861.81
2022-09-12T07:24:11.244Z,99857.09
2022-09-12T07:26:42.257Z,99864.19
2022-09-12T07:32:05.745Z,99864.31
2022-09-12T07:34:34.301Z,99864.59
2022-09-12T07:37:02.432Z,99865.75
2022-09-12T07:39:30.576Z,99867.41
2022-09-12T07:41:58.831Z,99863.50
2022-09-12T07:44:27.053Z,99863.56
2022-09-12T07:46:55.116Z,99861.31
2022-09-12T07:49:24.606Z,99861.94
2022-09-12T07:51:53.245Z,99855.75
2022-09-12T07:54:21.771Z,99854.81
2022-09-12T07:56:49.854Z,99854.63
2022-09-12T07:59:30.202Z,99856.69
2022-09-12T08:02:06.240Z,99851.09
2022-09-12T08:04:36.512Z,99851.69
2022-09-12T08:07:04.672Z,99859.50
2022-09-12T08:09:32.756Z,99860.03
2022-09-12T08:12:00.830Z,99853.59
2022-09-12T08:14:29.776Z,99857.56
2022-09-12T08:16:57.814Z,99855.16
2022-09-12T08:19:25.938Z,99855.06
2022-09-12T08:21:55.402Z,99855.78
2022-09-12T08:24:24.991Z,99849.50
2022-09-12T08:26:53.073Z,99854.63
2022-09-12T08:29:21.493Z,99840.84
2022-09-12T08:31:51.920Z,99845.91
2022-09-12T08:34:25.033Z,99845.09
2022-09-12T08:36:54.364Z,99843.41
2022-09-12T08:39:24.694Z,99852.38
2022-09-12T08:42:03.175Z,99838.16
2022-09-12T08:45:06.055Z,99832.84
2022-09-12T08:47:38.005Z,99837.75
2022-09-12T08:50:15.378Z,99832.88
2022-09-12T08:52:52.005Z,99837.72
2022-09-12T08:55:32.795Z,99827.19
2022-09-12T08:58:01.816Z,99835.22
2022-09-12T09:00:40.627Z,99833.09
2022-09-12T09:03:44.453Z,99838.38
2022-09-12T09:06:23.775Z,99840.75
2022-09-12T09:09:03.634Z,99831.63
2022-09-12T09:11:48.213Z,99821.94
2022-09-12T09:14:51.742Z,99817.56
2022-09-12T09:17:25.316Z,99807.44
2022-09-12T09:19:59.874Z,99812.19
2022-09-12T09:22:39.422Z,99813.88
2022-09-12T09:25:12.771Z,99808.72
2022-09-12T09:27:48.120Z,99805.63
2022-09-12T09:30:18.631Z,99807.28
2022-09-12T09:32:51.761Z,99800.91
2022-09-12T09:35:26.223Z,99804.78
2022-09-12T09:38:03.624Z,99801.56
2022-09-12T09:40:47.017Z,99797.25
2022-09-12T09:43:23.955Z,99800.19
2022-09-12T09:45:54.097Z,99797.34
2022-09-12T09:48:26.722Z,99802.59
2022-09-12T09:50:54.999Z,99796.91
2022-09-12T09:53:33.210Z,99793.56
2022-09-12T09:56:04.275Z,99801.75
2022-09-12T09:58:36.415Z,99794.41
2022-09-12T10:01:07.265Z,99791.19
2022-09-12T10:03:39.195Z,99794.53
2022-09-12T10:06:26.517Z,99803.72
2022-09-12T10:09:07.400Z,99806.69
2022-09-12T10:11:35.790Z,99798.06
2022-09-12T10:14:05.364Z,99806.22
2022-09-12T10:16:35.134Z,99798.91
2022-09-12T10:19:04.937Z,99795.78
2022-09-12T10:21:35.329Z,99798.81
2022-09-12T10:24:17.684Z,99806.44
2022-09-12T10:26:56.418Z,99799.16
2022-09-12T10:29:28.700Z,99798.25
2022-09-12T10:32:00.505Z,99791.47
2022-09-12T10:34:32.544Z,99802.72
2022-09-12T10:37:05.564Z,99801.34
2022-09-12T10:39:36.170Z,99801.13
2022-09-12T10:42:05.713Z,99798.50
2022-09-12T10:44:36.249Z,99801.34
2022-09-12T10:47:23.299Z,99798.75
2022-09-12T10:49:51.436Z,99800.44
2022-09-12T10:52:24.460Z,99799.47
2022-09-12T10:54:52.712Z,99800.97
2022-09-12T10:57:44.352Z,99806.88
2022-09-12T11:00:17.607Z,99800.13
2022-09-12T11:02:53.356Z,99795.31
2022-09-12T11:05:39.131Z,99799.38
2022-09-12T11:08:24.664Z,99793.13
2022-09-12T11:10:59.234Z,99799.97
2022-09-12T11:13:41.724Z,99788.19
2022-09-12T11:16:23.320Z,99794.31
2022-09-12T11:19:12.250Z,99794.84
2022-09-12T11:21:59.113Z,99797.78
2022-09-12T11:24:50.822Z,99794.66
2022-09-12T11:27:35.706Z,99785.75
2022-09-12T11:30:07.638Z,99780.69
2022-09-12T11:33:11.098Z,99792.66
2022-09-12T11:35:53.049Z,99793.03
2022-09-12T11:38:52.007Z,99788.00
2022-09-12T11:41:26.268Z,99799.31
2022-09-12T11:44:01.474Z,99787.31
2022-09-12T11:46:36.821Z,99789.41
2022-09-12T11:49:16.434Z,99782.88
2022-09-12T11:51:51.271Z,99769.19
2022-09-12T11:54:25.997Z,99773.41
2022-09-12T11:57:01.909Z,99784.56
2022-09-12T11:59:42.579Z,99792.09
2022-09-12T12:02:15.326Z,99782.81
2022-09-12T12:04:57.262Z,99787.53
2022-09-12T12:07:26.772Z,99785.22
2022-09-12T12:09:55.733Z,99784.94
2022-09-12T12:12:29.468Z,99794.78
2022-09-12T12:14:59.115Z,99789.78
2022-09-12T12:17:29.722Z,99787.41
2022-09-12T12:20:05.799Z,99779.97
2022-09-12T12:22:38.187Z,99785.47
2022-09-12T12:25:28.843Z,99787.16
2022-09-12T12:28:04.186Z,99784.03
2022-09-12T12:31:03.349Z,99777.06
2022-09-12T12:34:07.933Z,99768.63
2022-09-12T12:36:46.426Z,99769.69
2022-09-12T12:40:01.130Z,99776.19
2022-09-12T12:43:04.663Z,99782.13
2022-09-12T12:46:13.015Z,99782.09
2022-09-12T12:49:14.111Z,99796.88
2022-09-12T12:52:02.128Z,99797.16
2022-09-12T12:54:49.584Z,99788.66
2022-09-12T12:57:23.759Z,99787.41
2022-09-12T12:59:56.717Z,99790.03
2022-09-12T13:02:31.192Z,99791.34
2022-09-12T13:05:02.522Z,99783.34
2022-09-12T13:07:35.029Z,99776.53
2022-09-12T13:10:04.837Z,99779.72
2022-09-12T13:12:37.364Z,99791.63
2022-09-12T13:15:47.930Z,99801.13
2022-09-12T13:18:23.214Z,99801.59
2022-09-12T13:20:58.603Z,99799.00
2022-09-12T13:23:28.916Z,99805.03
2022-09-12T13:25:58.573Z,99801.97
2022-09-12T13:28:27.747Z,99802.41
2022-09-12T13:31:12.634Z,99803.13
2022-09-12T13:33:44.170Z,99810.09
2022-09-12T13:36:36.711Z,99797.72
2022-09-12T13:39:15.902Z,99799.56
2022-09-12T13:42:19.985Z,99800.22
2022-09-12T13:44:52.394Z,99795.44
2022-09-12T13:47:28.510Z,99793.94
2022-09-12T13:49:58.439Z,99792.47
2022-09-12T13:52:29.378Z,99798.22
2022-09-12T13:55:00.236Z,99798.25
2022-09-12T13:57:31.567Z,99789.69
2022-09-12T14:00:02.114Z,99793.59
2022-09-12T14:02:31.746Z,99802.78
2022-09-12T14:05:10.277Z,99805.13
2022-09-12T14:07:54.677Z,99803.94
2022-09-12T14:10:28.231Z,99804.34
2022-09-12T14:12:58.824Z,99799.66
2022-09-12T14:15:30.178Z,99797.22
2022-09-12T14:18:01.869Z,99802.28
2022-09-12T14:20:33.095Z,99809.41
2022-09-12T14:23:03.712Z,99805.81
2022-09-12T14:25:39.112Z,99807.03
2022-09-12T14:28:07.799Z,99808.88
2022-09-12T14:30:37.720Z,99811.63
2022-09-12T14:33:22.227Z,99810.88
2022-09-12T14:35:52.023Z,99815.66
2022-09-12T14:38:25.843Z,99812.19
2022-09-12T14:41:01.735Z,99812.19
2022-09-12T14:43:31.587Z,99813.47
2022-09-12T14:46:02.895Z,99809.97
2022-09-12T14:48:36.949Z,99814.69
2022-09-12T14:51:06.587Z,99810.44
2022-09-12T14:53:36.597Z,99822.59
2022-09-12T14:56:10.282Z,99820.28
2022-09-12T14:58:38.847Z,99812.53
2022-09-12T15:01:25.685Z,99810.91
2022-09-12T15:03:57.334Z,99810.56
2022-09-12T15:06:29.991Z,99806.25
2022-09-12T15:09:00.738Z,99810.97
2022-09-12T15:11:29.162Z,99807.34
2022-09-12T15:13:57.239Z,99806.94
2022-09-12T15:16:25.412Z,99796.34
2022-09-12T15:18:53.582Z,99796.84
2022-09-12T15:21:23.192Z,99803.09
2022-09-12T15:23:53.950Z,99798.50
2022-09-12T15:26:23.535Z,99803.69
2022-09-12T15:28:52.247Z,99808.53
2022-09-12T15:31:25.837Z,99802.00
2022-09-12T15:33:55.441Z,99808.22
2022-09-12T15:36:26.239Z,99796.53
2022-09-12T15:38:54.657Z,99804.00
2022-09-12T15:41:25.953Z,99803.25
2022-09-12T15:43:54.057Z,99804.78
2022-09-12T15:46:22.274Z,99800.16
2022-09-12T15:48:50.532Z,99797.09
2022-09-12T15:51:20.799Z,99795.19
2022-09-12T15:53:51.745Z,99797.94
2022-09-12T15:56:21.934Z,99795.22
2022-09-12T15:58:59.534Z,99797.66
2022-09-12T16:01:29.682Z,99784.44
2022-09-12T16:03:58.149Z,99791.47
2022-09-12T16:06:27.962Z,99795.34
2022-09-12T16:08:57.494Z,99787.56
2022-09-12T16:11:27.948Z,99797.28
2022-09-12T16:13:57.264Z,99792.22
2022-09-12T16:16:25.463Z,99801.59
2022-09-12T16:18:53.673Z,99801.97
2022-09-12T16:21:21.858Z,99805.91
2022-09-12T16:23:50.632Z,99803.97
2022-09-12T16:26:20.235Z,99804.00
2022-09-12T16:28:48.507Z,99806.34
2022-09-12T16:31:17.008Z,99796.22
2022-09-12T16:33:45.132Z,99797.78
2022-09-12T16:36:15.047Z,99794.66
2022-09-12T16:38:43.565Z,99790.78
2022-09-12T16:41:11.966Z,99795.44
2022-09-12T16:43:41.618Z,99793.94
2022-09-12T16:46:11.521Z,99789.63
2022-09-12T16:48:48.107Z,99794.72
2022-09-12T16:51:21.508Z,99798.25
2022-09-12T16:53:50.399Z,99806.41
2022-09-12T16:56:19.660Z,99804.47
2022-09-12T16:58:49.762Z,99809.16
2022-09-12T17:01:19.756Z,99810.34
2022-09-12T17:03:48.325Z,99803.72
2022-09-12T17:06:18.228Z,99809.91
2022-09-12T17:08:48.752Z,99814.22
2022-09-12T17:11:19.640Z,99820.47
2022-09-12T17:14:04.378Z,99808.00
2022-09-12T17:16:34.128Z,99808.78
2022-09-12T17:19:02.290Z,99807.97
2022-09-12T17:21:30.774Z,99804.09
2022-09-12T17:23:59.371Z,99804.09
2022-09-12T17:26:27.966Z,99806.03
2022-09-12T17:28:57.640Z,99802.94
2022-09-12T17:31:26.713Z,99800.19
2022-09-12T17:33:58.559Z,99794.00
2022-09-12T17:36:27.285Z,99786.97
2022-09-12T17:38:55.606Z,99792.81
2022-09-12T17:41:25.938Z,99790.88
2022-09-12T17:43:57.399Z,99786.97
2022-09-12T17:46:31.065Z,99799.41
2022-09-12T17:49:01.053Z,99807.56
2022-09-12T17:51:31.207Z,99813.47
2022-09-12T17:54:01.310Z,99827.09
2022-09-12T17:56:31.355Z,99830.94
2022-09-12T17:59:00.446Z,99833.28
2022-09-12T18:01:48.683Z,99832.06
2022-09-12T18:04:17.678Z,99833.59
2022-09-12T18:06:48.266Z,99836.63
2022-09-12T18:09:18.698Z,99833.81
2022-09-12T18:11:48.179Z,99831.06
2022-09-12T18:14:17.315Z,99831.78
2022-09-12T18:16:47.499Z,99832.53
2022-09-12T18:19:16.341Z,99822.34
2022-09-12T18:21:44.833Z,99834.47
2022-09-12T18:24:13.513Z,99829.34
2022-09-12T18:26:43.843Z,99835.50
2022-09-12T18:29:13.039Z,99831.97
2022-09-12T18:31:41.222Z,99830.38
2022-09-12T18:34:13.942Z,99820.28
2022-09-12T18:36:42.680Z,99825.69
2022-09-12T18:39:11.253Z,99832.19
2022-09-12T18:41:39.698Z,99831.75
2022-09-12T18:44:08.427Z,99848.41
2022-09-12T18:46:37.034Z,99845.34
2022-09-12T18:49:07.557Z,99842.28
2022-09-12T18:51:40.145Z,99843.75
2022-09-12T18:54:12.313Z,99854.59
2022-09-12T18:56:43.631Z,99852.34
2022-09-12T18:59:14.155Z,99854.06
2022-09-12T19:01:43.315Z,99851.84
2022-09-12T19:04:13.800Z,99852.72
2022-09-12T19:06:45.383Z,99841.84
2022-09-12T19:09:15.387Z,99846.94
2022-09-12T19:11:49.594Z,99847.28
2022-09-12T19:14:17.906Z,99844.19
2022-09-12T19:16:46.078Z,99844.50
2022-09-12T19:19:14.195Z,99844.13
2022-09-12T19:21:43.968Z,99833.66
2022-09-12T19:24:14.438Z,99835.19
2022-09-12T19:26:43.152Z,99831.31
2022-09-12T19:29:14.398Z,99842.19
2022-09-12T19:31:42.911Z,99843.34
2022-09-12T19:34:12.227Z,99839.50
2022-09-12T19:36:45.287Z,99846.53
2022-09-12T19:39:17.253Z,99855.78
2022-09-12T19:41:46.376Z,99849.53
2022-09-12T19:44:15.047Z,99854.63
2022-09-12T19:46:43.470Z,99855.44
2022-09-12T19:49:13.288Z,99848.81
2022-09-12T19:51:41.982Z,99846.47
2022-09-12T19:54:10.488Z,99843.00
2022-09-12T19:56:40.140Z,99844.19
2022-09-12T19:59:08.832Z,99842.19
2022-09-12T20:01:37.736Z,99843.00
2022-09-12T20:04:06.875Z,99855.44
2022-09-12T20:06:35.311Z,99860.88
2022-09-12T20:09:03.817Z,99850.78
2022-09-12T20:11:31.993Z,99855.44
2022-09-12T20:14:01.624Z,99860.09
2022-09-12T20:16:30.376Z,99872.50
2022-09-12T20:19:00.062Z,99884.63
2022-09-12T20:21:31.875Z,99875.25
2022-09-12T20:24:05.015Z,99869.78
2022-09-12T20:26:33.620Z,99872.91
2022-09-12T20:29:03.722Z,99872.13
2022-09-12T20:31:32.115Z,99880.28
2022-09-12T20:34:00.662Z,99884.16
2022-09-12T20:36:29.061Z,99894.72
2022-09-12T20:39:00.060Z,99884.22
2022-09-12T20:41:31.049Z,99886.53
2022-09-12T20:44:00.053Z,99880.72
2022-09-12T20:46:29.971Z,99887.63
2022-09-12T20:48:58.616Z,99885.72
2022-09-12T20:51:29.737Z,99881.47
2022-09-12T20:53:59.440Z,99877.19
2022-09-12T20:56:28.624Z,99884.91
2022-09-12T20:58:57.191Z,99887.63
2022-09-12T21:01:26.220Z,99888.00
2022-09-12T21:03:55.949Z,99877.56
2022-09-12T21:06:24.127Z,99881.03
2022-09-12T21:08:52.823Z,99868.16
2022-09-12T21:11:21.669Z,99873.53
2022-09-12T21:13:50.382Z,99863.03
2022-09-12T21:16:20.301Z,99876.63
2022-09-12T21:18:49.144Z,99871.53
2022-09-12T21:21:18.663Z,99870.59
2022-09-12T21:23:47.103Z,99882.69
2022-09-12T21:26:15.226Z,99874.81
2022-09-12T21:28:43.300Z,99872.84
2022-09-12T21:31:11.593Z,99876.25
2022-09-12T21:33:40.570Z,99879.25
2022-09-12T21:36:09.872Z,99872.25
2022-09-12T21:38:39.532Z,99873.00
2022-09-12T21:41:09.412Z,99862.84
2022-09-12T21:43:38.749Z,99865.22
2022-09-12T21:46:08.458Z,99871.03
2022-09-12T21:48:37.443Z,99864.31
2022-09-12T21:51:06.192Z,99865.94
2022-09-12T21:53:35.844Z,99878.31
2022-09-12T21:56:07.167Z,99874.41
2022-09-12T21:58:35.715Z,99881.28
2022-09-12T22:01:05.785Z,99875.44
2022-09-12T22:03:34.078Z,99885.06
2022-09-12T22:06:03.958Z,99886.63
2022-09-12T22:08:34.293Z,99883.91
2022-09-12T22:11:08.040Z,99883.50
2022-09-12T22:13:39.319Z,99887.09
2022-09-12T22:16:07.989Z,99876.91
2022-09-12T22:18:37.556Z,99878.09
2022-09-12T22:21:08.876Z,99884.22
2022-09-12T22:23:54.591Z,99892.78
2022-09-12T22:26:22.751Z,99882.72
2022-09-12T22:28:52.571Z,99885.78
2022-09-12T22:31:21.003Z,99876.44
2022-09-12T22:33:50.125Z,99881.84
2022-09-12T22:36:18.409Z,99865.13
2022-09-12T22:38:46.593Z,99869.41
2022-09-12T22:41:14.822Z,99868.19
2022-09-12T22:43:43.356Z,99877.09
2022-09-12T22:46:13.517Z,99877.81
2022-09-12T22:48:42.073Z,99880.97
2022-09-12T22:51:10.799Z,99885.59
2022-09-12T22:53:39.121Z,99880.84
2022-09-12T22:56:07.978Z,99877.59
2022-09-12T22:58:37.458Z,99880.63
2022-09-12T23:01:06.374Z,99878.19
2022-09-12T23:03:37.126Z,99875.81
2022-09-12T23:06:06.052Z,99885.69
2022-09-12T23:08:35.967Z,99875.56
2022-09-12T23:11:04.834Z,99880.41
2022-09-12T23:13:33.197Z,99887.28
2022-09-12T23:16:01.738Z,99883.44
2022-09-12T23:18:30.455Z,99897.22
2022-09-12T23:21:01.607Z,99893.97
2022-09-12T23:23:30.343Z,99895.56
2022-09-12T23:26:06.233Z,99898.19
2022-09-12T23:28:34.719Z,99896.53
2022-09-12T23:31:03.692Z,99896.41
2022-09-12T23:33:33.054Z,99893.19
2022-09-12T23:36:03.860Z,99893.97
2022-09-12T23:38:32.666Z,99894.56
2022-09-12T23:41:01.321Z,99892.59
2022-09-12T23:43:30.165Z,99897.63
2022-09-12T23:45:59.054Z,99899.81
2022-09-12T23:48:27.560Z,99899.81
2022-09-12T23:50:56.362Z,99888.97
2022-09-12T23:53:25.892Z,99904.38
2022-09-12T23:55:54.621Z,99913.47
2022-09-12T23:58:22.927Z,99913.41
